Säätilassa ei varoituksia.

Lähimmät METAR asemat

 

EFPO - Pori (mil/Civ), Finland
Distance from station: PLU 42km
Päivitetty: 23/09/2020 00:20
Selkeätä
Selkeätä
 Wind from EKA
Tuuli: EKA 11 km/h
Lämpötila: 9°C
Wind Chill: 7°C
Kastepiste: 9°C
Kosteus: 100%
Ilmanpaine: 1005 hPa
Yhteenveto: Selkeätä
Visibility: greater than 10 km
2020/09/22 21:20 EFPO 222120Z AUTO 16006KT CAVOK 09/09 Q1005
EFTU - Turku/Abo, Finland
Distance from station: E 68km
Päivitetty: 23/09/2020 00:20
Enimmäkseen pilvistä
Enimmäkseen pilvistä
 Wind from ELO
Tuuli: ELO 9 km/h
Lämpötila: 11°C
Kastepiste: 9°C
Kosteus: 88%
Ilmanpaine: 1006 hPa
Clouds: Enimmäkseen pilvistä
Visibility: 10 km
Cloud details: Enimmäkseen pilvistä 457 m
2020/09/22 21:20 EFTU 222120Z AUTO 20005KT 170V240 9999 BKN015 11/09 Q1006
 
EFTP - Tampere/Pirkkala, Finland
Distance from station: IKO 84km
Päivitetty: 23/09/2020 00:20
Selkeätä
Selkeätä
 Wind from EKA
Tuuli: EKA 6 km/h
Lämpötila: 10°C
Kastepiste: 9°C
Kosteus: 94%
Ilmanpaine: 1006 hPa
Yhteenveto: Selkeätä
Visibility: greater than 10 km
2020/09/22 21:20 EFTP 222120Z AUTO 16003KT CAVOK 10/09 Q1006